Time;durP1;ratioP1;P1;durP2;ratioP2;P2;SDS_P1;SDS_P2;PMS_P1;PMS_P2;Temp;Humidity;BMP_temperature;BMP_pressure;BME280_temperature;BME280_humidity;BME280_pressure;Samples;Min_cycle;Max_cycle;Signal;HPM_P1;HPM_P2
2022/11/06 00:01:11;;;;;;;5.63;3.65;;;11.30;99.90;;;;;;5007610;28;20045;-85
2022/11/06 00:03:36;;;;;;;11.82;4.65;;;10.50;99.90;;;;;;5007752;28;20034;-86
2022/11/06 00:08:51;;;;;;;13.60;4.30;;;10.50;99.90;;;;;;4989694;28;20075;-86
2022/11/06 00:11:17;;;;;;;8.52;3.58;;;10.40;99.90;;;;;;4989926;28;20046;-88
2022/11/06 00:13:43;;;;;;;11.35;4.22;;;11.20;99.90;;;;;;4973123;28;20045;-87
2022/11/06 00:16:10;;;;;;;7.65;3.70;;;10.50;99.90;;;;;;4973664;28;20127;-86
2022/11/06 00:18:37;;;;;;;7.63;3.67;;;10.40;99.90;;;;;;5009219;28;20042;-86
2022/11/06 00:21:16;;;;;;;11.77;4.30;;;10.40;99.90;;;;;;5009476;28;20046;-86
2022/11/06 00:23:43;;;;;;;7.97;3.88;;;10.30;99.90;;;;;;4993143;28;20057;-87
2022/11/06 00:26:12;;;;;;;16.45;5.32;;;10.40;99.90;;;;;;4993390;28;20041;-88
2022/11/06 00:28:38;;;;;;;8.05;4.10;;;10.20;99.90;;;;;;4994058;28;20041;-88
2022/11/06 00:31:06;;;;;;;6.57;4.22;;;10.30;99.90;;;;;;4992939;28;20077;-86
2022/11/06 00:33:33;;;;;;;11.30;4.75;;;10.10;99.90;;;;;;4993188;28;20092;-88
2022/11/06 00:36:02;;;;;;;7.10;4.18;;;10.10;99.90;;;;;;4992807;28;20041;-87
2022/11/06 00:38:28;;;;;;;6.10;4.10;;;10.10;99.90;;;;;;4993198;28;20041;-87
2022/11/06 00:40:54;;;;;;;9.40;4.28;;;10.30;99.90;;;;;;4976880;28;20054;-87
2022/11/06 00:43:19;;;;;;;12.88;5.30;;;10.50;99.90;;;;;;4993433;28;20045;-87
2022/11/06 00:45:45;;;;;;;15.73;5.05;;;10.30;99.90;;;;;;4993332;28;20133;-87
2022/11/06 00:48:11;;;;;;;13.35;4.93;;;10.40;99.90;;;;;;4978096;28;20042;-88
2022/11/06 00:50:36;;;;;;;16.73;5.78;;;10.30;99.90;;;;;;4981978;28;20046;-88
2022/11/06 00:53:02;;;;;;;10.73;5.30;;;9.90;99.90;;;;;;4998445;28;20108;-87
2022/11/06 00:55:27;;;;;;;9.35;4.68;;;10.40;99.90;;;;;;4978344;28;20056;-88
2022/11/06 00:57:53;;;;;;;6.78;4.55;;;10.80;99.90;;;;;;4945363;28;20050;-88
2022/11/06 01:00:19;;;;;;;8.10;5.22;;;10.40;99.90;;;;;;4980084;28;20085;-89
2022/11/06 01:02:46;;;;;;;10.95;5.53;;;9.80;99.90;;;;;;4980817;28;20041;-89
2022/11/06 01:05:12;;;;;;;9.50;5.90;;;9.80;99.90;;;;;;4996410;28;20048;-87
2022/11/06 01:07:38;;;;;;;11.30;6.07;;;10.40;99.90;;;;;;4979806;28;20496;-88
2022/11/06 01:10:05;;;;;;;9.60;5.35;;;9.80;99.90;;;;;;4960975;28;20049;-88
2022/11/06 01:12:32;;;;;;;12.88;5.68;;;9.80;99.90;;;;;;4977332;28;20049;-87
2022/11/06 01:14:57;;;;;;;18.13;6.18;;;9.70;99.90;;;;;;4977347;28;20053;-88
2022/11/06 01:17:23;;;;;;;10.63;5.60;;;9.70;99.90;;;;;;4976638;28;20042;-88
2022/11/06 01:19:49;;;;;;;11.48;5.68;;;9.70;99.90;;;;;;4976489;28;20064;-87
2022/11/06 01:22:15;;;;;;;12.25;5.80;;;9.70;99.90;;;;;;4992888;28;20041;-87
2022/11/06 01:24:41;;;;;;;13.48;6.65;;;9.70;99.90;;;;;;4960784;28;20042;-87
2022/11/06 01:27:06;;;;;;;13.20;6.20;;;9.70;99.90;;;;;;4976355;28;20045;-87
2022/11/06 01:29:32;;;;;;;12.43;5.97;;;9.90;99.90;;;;;;4959323;28;20042;-87
2022/11/06 01:31:58;;;;;;;10.05;6.05;;;10.30;99.90;;;;;;4976719;28;20058;-87
2022/11/06 01:34:24;;;;;;;11.90;6.53;;;10.60;99.90;;;;;;4976384;28;20295;-88
2022/11/06 01:36:49;;;;;;;11.32;6.63;;;9.70;99.90;;;;;;4960310;28;20045;-87
2022/11/06 01:39:16;;;;;;;12.95;6.38;;;10.90;99.90;;;;;;4993009;28;20428;-88
2022/11/06 01:41:44;;;;;;;10.27;6.35;;;10.70;99.90;;;;;;4992344;28;20042;-87
2022/11/06 01:44:13;;;;;;;10.73;6.38;;;9.70;99.90;;;;;;4992753;28;20046;-88
2022/11/06 01:46:39;;;;;;;12.88;6.18;;;10.40;99.90;;;;;;4992872;28;20056;-87
2022/11/06 01:49:08;;;;;;;18.50;6.15;;;10.70;99.90;;;;;;5009934;28;20101;-87
2022/11/06 01:51:48;;;;;;;11.77;5.97;;;9.80;99.90;;;;;;4997008;28;20046;-88
2022/11/06 01:54:15;;;;;;;10.73;5.55;;;9.60;99.90;;;;;;4996925;28;20042;-87
2022/11/06 01:56:45;;;;;;;12.15;6.00;;;9.60;99.90;;;;;;4995890;28;20053;-88
2022/11/06 01:59:14;;;;;;;13.00;6.72;;;10.20;99.90;;;;;;4976087;28;20049;-86
2022/11/06 02:01:40;;;;;;;12.88;6.32;;;9.60;99.90;;;;;;4992803;28;20069;-89
2022/11/06 02:04:22;;;;;;;16.25;6.63;;;9.60;99.90;;;;;;4960822;28;20397;-87
2022/11/06 02:06:49;;;;;;;16.05;6.50;;;9.60;99.90;;;;;;4991322;28;20060;-86
2022/11/06 02:09:15;;;;;;;12.20;6.63;;;10.60;99.90;;;;;;4992538;28;20245;-88
2022/11/06 02:11:44;;;;;;;11.90;7.18;;;9.60;99.90;;;;;;4992269;28;20450;-88
2022/11/06 02:14:41;;;;;;;12.25;6.72;;;9.80;99.90;;;;;;4992278;28;20041;-88
2022/11/06 02:17:45;;;;;;;11.13;6.22;;;9.60;99.90;;;;;;4975849;28;20401;-88
2022/11/06 02:20:22;;;;;;;11.85;6.35;;;9.60;99.90;;;;;;4991386;28;20049;-88
2022/11/06 02:23:06;;;;;;;15.93;6.55;;;9.60;99.90;;;;;;4991923;28;20112;-89
2022/11/06 02:25:45;;;;;;;13.07;6.47;;;9.60;99.90;;;;;;4992037;28;20077;-89
2022/11/06 02:28:25;;;;;;;12.90;6.82;;;9.60;99.90;;;;;;4991477;28;20053;-88
2022/11/06 02:30:52;;;;;;;9.38;6.38;;;9.50;99.90;;;;;;4975944;28;20156;-88
2022/11/06 02:33:28;;;;;;;14.23;6.68;;;9.50;99.90;;;;;;4959399;28;20110;-88
2022/11/06 02:36:04;;;;;;;10.23;5.85;;;9.90;99.90;;;;;;4991945;28;20104;-89
2022/11/06 02:38:50;;;;;;;10.32;6.40;;;9.50;99.90;;;;;;4975574;28;20128;-89
2022/11/06 02:41:23;;;;;;;13.82;6.88;;;9.50;99.90;;;;;;4990126;28;20528;-89
2022/11/06 02:43:53;;;;;;;13.20;6.22;;;9.60;99.90;;;;;;4975538;28;20133;-89
2022/11/06 02:46:36;;;;;;;15.00;7.45;;;9.80;99.90;;;;;;4974835;28;20046;-88
2022/11/06 02:49:07;;;;;;;8.63;6.93;;;9.60;99.90;;;;;;4991311;28;20085;-88
2022/11/06 02:51:38;;;;;;;8.57;5.80;;;10.30;99.90;;;;;;4991344;28;20046;-89
2022/11/06 02:54:05;;;;;;;9.98;6.35;;;9.70;99.90;;;;;;4990575;28;20038;-89
2022/11/06 02:56:38;;;;;;;9.95;6.68;;;9.60;99.90;;;;;;4990995;28;20539;-89
2022/11/06 02:59:08;;;;;;;;;;;9.60;99.90;;;;;;5008371;28;20497;-89
2022/11/06 03:01:48;;;;;;;10.50;6.72;;;9.90;99.90;;;;;;4975109;28;19921;-89
2022/11/06 03:04:35;;;;;;;16.20;7.80;;;9.60;99.90;;;;;;4974818;28;20053;-89
2022/11/06 03:07:08;;;;;;;10.55;6.32;;;9.60;99.90;;;;;;4990831;28;20057;-88
2022/11/06 03:09:34;;;;;;;18.25;6.63;;;10.40;99.90;;;;;;4991400;28;20050;-88
2022/11/06 03:12:16;;;;;;;11.95;6.82;;;9.60;99.90;;;;;;4974329;28;20037;-89
2022/11/06 03:15:12;;;;;;;15.43;6.60;;;9.60;99.90;;;;;;4990892;28;20143;-88
2022/11/06 03:17:51;;;;;;;7.10;5.78;;;9.60;99.90;;;;;;4961069;28;20569;-88
2022/11/06 03:20:25;;;;;;;15.10;6.63;;;9.70;99.90;;;;;;4989990;28;20066;-89
2022/11/06 03:23:17;;;;;;;10.13;6.20;;;9.60;99.90;;;;;;4991125;28;20476;-88
2022/11/06 03:25:52;;;;;;;9.75;6.28;;;9.70;99.90;;;;;;4990607;28;20046;-89
2022/11/06 03:28:28;;;;;;;9.60;6.60;;;9.80;99.90;;;;;;4990480;28;20088;-88
2022/11/06 03:30:58;;;;;;;10.23;5.85;;;9.70;99.90;;;;;;4990967;28;20058;-88
2022/11/06 03:33:37;;;;;;;8.75;5.97;;;9.70;99.90;;;;;;4973658;28;20092;-88
2022/11/06 03:36:25;;;;;;;11.55;5.65;;;9.70;99.90;;;;;;4974435;28;20041;-88
2022/11/06 03:39:08;;;;;;;9.00;5.60;;;9.70;99.90;;;;;;5001693;28;20132;-88
2022/11/06 03:41:35;;;;;;;12.90;6.22;;;9.70;99.90;;;;;;4990600;28;20049;-88
2022/11/06 03:44:03;;;;;;;8.02;5.90;;;9.80;99.90;;;;;;4975126;28;20445;-87
2022/11/06 03:46:30;;;;;;;6.90;5.78;;;9.70;99.90;;;;;;4989500;28;20092;-88
2022/11/06 03:49:00;;;;;;;13.75;6.07;;;9.70;99.90;;;;;;4974283;28;20081;-88
2022/11/06 03:51:36;;;;;;;10.75;5.60;;;9.80;99.90;;;;;;4990193;28;20054;-89
2022/11/06 03:54:06;;;;;;;11.15;6.50;;;9.70;99.90;;;;;;4988855;28;20053;-89
2022/11/06 03:56:53;;;;;;;9.82;5.88;;;9.70;99.90;;;;;;5006495;28;20521;-88
2022/11/06 03:59:24;;;;;;;10.70;5.82;;;9.70;99.90;;;;;;4989598;28;20458;-89
2022/11/06 04:01:53;;;;;;;10.60;5.85;;;9.70;99.90;;;;;;4959077;28;20068;-88
2022/11/06 04:04:28;;;;;;;12.07;5.97;;;9.70;99.90;;;;;;5007522;28;20560;-88
2022/11/06 04:07:09;;;;;;;14.05;6.55;;;9.70;99.90;;;;;;4973563;28;20093;-88
2022/11/06 04:15:15;;;;;;;9.80;5.50;;;9.70;99.90;;;;;;4991542;28;20053;-88
2022/11/06 04:17:41;;;;;;;13.48;6.80;;;9.40;99.90;;;;;;4992301;28;20046;-88
2022/11/06 04:20:10;;;;;;;11.27;5.40;;;10.50;99.90;;;;;;4974468;28;20520;-89
2022/11/06 04:23:02;;;;;;;11.25;5.35;;;9.70;99.90;;;;;;4992331;28;20056;-89
2022/11/06 04:28:55;;;;;;;12.30;6.10;;;9.70;99.90;;;;;;4989436;28;20479;-89
2022/11/06 04:31:48;;;;;;;8.48;5.25;;;9.70;99.90;;;;;;4991362;28;20053;-87
2022/11/06 04:34:19;;;;;;;7.87;3.70;;;9.70;99.90;;;;;;4991073;28;20112;-89
2022/11/06 04:36:58;;;;;;;14.00;5.10;;;9.70;99.90;;;;;;4991574;28;20392;-87
2022/11/06 04:40:06;;;;;;;11.13;5.90;;;9.70;99.90;;;;;;4991047;28;20108;-87
2022/11/06 04:42:49;;;;;;;11.00;5.35;;;9.80;99.90;;;;;;4990406;28;20053;-89
2022/11/06 04:45:29;;;;;;;13.38;5.88;;;9.90;99.90;;;;;;4991108;28;20041;-89
2022/11/06 04:47:56;;;;;;;12.40;5.82;;;9.70;99.90;;;;;;4991404;28;20100;-88
2022/11/06 04:50:25;;;;;;;10.98;5.53;;;10.90;99.90;;;;;;4990679;28;20731;-88
2022/11/06 04:52:52;;;;;;;15.15;5.32;;;9.70;99.90;;;;;;4991478;28;20077;-89
2022/11/06 04:55:20;;;;;;;11.82;5.95;;;9.80;99.90;;;;;;4973963;28;20121;-89
2022/11/06 04:57:45;;;;;;;13.60;5.68;;;10.20;99.90;;;;;;4990815;28;20637;-89
2022/11/06 05:00:13;;;;;;;7.53;5.20;;;9.80;99.90;;;;;;4959086;28;20046;-88
2022/11/06 05:02:39;;;;;;;11.10;5.05;;;9.80;99.90;;;;;;4975363;28;20065;-89
2022/11/06 05:05:05;;;;;;;12.25;5.93;;;9.90;99.90;;;;;;4960011;28;20580;-88
2022/11/06 05:07:31;;;;;;;20.25;6.10;;;9.80;99.90;;;;;;5005628;28;20066;-88
2022/11/06 05:10:09;;;;;;;16.35;5.55;;;9.80;99.90;;;;;;5104941;27;20450;-86
2022/11/06 05:12:35;;;;;;;15.63;5.35;;;10.00;99.90;;;;;;5087632;28;20044;-86
2022/11/06 05:15:01;;;;;;;13.55;4.45;;;10.30;99.90;;;;;;5054492;28;20036;-87
2022/11/06 05:17:26;;;;;;;10.07;4.90;;;9.80;99.90;;;;;;5071831;28;20129;-88
2022/11/06 05:19:52;;;;;;;9.77;5.13;;;10.50;99.90;;;;;;5072065;28;20138;-87
2022/11/06 05:25:02;;;;;;;10.05;4.93;;;10.50;99.90;;;;;;5087961;28;20066;-86
2022/11/06 05:27:28;;;;;;;12.85;5.07;;;9.60;99.90;;;;;;5056169;28;20040;-87
2022/11/06 05:29:54;;;;;;;9.90;4.55;;;9.80;99.90;;;;;;5054571;28;20044;-86
2022/11/06 05:32:19;;;;;;;13.63;6.32;;;10.50;99.90;;;;;;5055894;28;20050;-87
2022/11/06 05:34:45;;;;;;;15.57;5.28;;;10.40;99.90;;;;;;5087900;28;20123;-88
2022/11/06 05:37:11;;;;;;;13.23;5.55;;;9.80;99.90;;;;;;5054243;28;20094;-89
2022/11/06 05:39:37;;;;;;;11.70;5.07;;;9.90;99.90;;;;;;5071876;28;20048;-87
2022/11/06 05:42:02;;;;;;;10.18;4.30;;;10.10;99.90;;;;;;5070538;28;20044;-89
2022/11/06 05:44:28;;;;;;;9.88;5.15;;;9.80;99.90;;;;;;5054365;28;20040;-88
2022/11/06 05:46:54;;;;;;;10.57;4.07;;;10.10;99.90;;;;;;5053112;28;20058;-87
2022/11/06 05:49:19;;;;;;;11.35;4.35;;;9.80;99.90;;;;;;5054340;28;20048;-88
2022/11/06 05:51:46;;;;;;;12.63;4.70;;;9.80;99.90;;;;;;5070757;28;20479;-87
2022/11/06 05:54:11;;;;;;;9.65;4.47;;;10.10;99.90;;;;;;5056736;28;20359;-87
2022/11/06 05:56:37;;;;;;;11.50;4.05;;;9.90;99.90;;;;;;5091683;28;20127;-88
2022/11/06 05:59:03;;;;;;;16.85;6.60;;;10.20;99.90;;;;;;5056738;28;20105;-87
2022/11/06 06:01:29;;;;;;;13.75;4.63;;;9.80;99.90;;;;;;5074158;28;20051;-88
2022/11/06 06:03:55;;;;;;;8.23;3.72;;;10.90;99.90;;;;;;5055590;28;20040;-90
2022/11/06 06:06:21;;;;;;;14.27;4.55;;;9.80;99.90;;;;;;5087756;28;20044;-91
2022/11/06 06:08:47;;;;;;;12.30;4.63;;;9.80;99.90;;;;;;5089853;28;20079;-90
2022/11/06 06:11:12;;;;;;;10.45;4.22;;;9.70;99.90;;;;;;5042536;28;20123;-90
2022/11/06 06:13:38;;;;;;;10.27;3.85;;;10.60;99.90;;;;;;5059013;28;20483;-88
2022/11/06 06:16:04;;;;;;;6.10;3.65;;;9.80;99.90;;;;;;5056603;28;20040;-89
2022/11/06 06:18:30;;;;;;;6.18;3.45;;;9.80;99.90;;;;;;5056495;28;20368;-89
2022/11/06 06:20:59;;;;;;;7.05;4.13;;;10.70;99.90;;;;;;5028129;28;20067;-88
2022/11/06 06:23:25;;;;;;;7.95;4.15;;;9.80;99.90;;;;;;5074756;28;20444;-89
2022/11/06 06:25:55;;;;;;;10.13;4.15;;;9.80;99.90;;;;;;5073040;28;20205;-89
2022/11/06 06:28:20;;;;;;;9.85;3.65;;;10.80;99.90;;;;;;5058349;28;20415;-89
2022/11/06 06:30:46;;;;;;;8.65;3.78;;;9.80;99.90;;;;;;5056307;28;20036;-87
2022/11/06 06:33:12;;;;;;;11.65;3.90;;;10.30;99.90;;;;;;5040146;28;20079;-88
2022/11/06 06:35:37;;;;;;;7.68;3.13;;;9.70;99.90;;;;;;5039521;28;20037;-89
2022/11/06 06:38:03;;;;;;;12.18;3.92;;;9.70;99.90;;;;;;5039761;28;20047;-89
2022/11/06 06:40:29;;;;;;;13.77;4.00;;;10.80;99.90;;;;;;5040150;28;20127;-88
2022/11/06 06:42:58;;;;;;;9.40;3.97;;;9.80;99.90;;;;;;5055785;28;20089;-86
2022/11/06 06:45:25;;;;;;;10.75;3.67;;;9.70;99.90;;;;;;5056548;28;20430;-88
2022/11/06 06:47:51;;;;;;;9.30;3.40;;;9.70;99.90;;;;;;5055362;28;20040;-88
2022/11/06 06:50:20;;;;;;;11.55;4.10;;;9.70;99.90;;;;;;5040140;28;20047;-86
2022/11/06 06:52:46;;;;;;;6.78;2.92;;;9.70;99.90;;;;;;5055858;28;20040;-87
2022/11/06 06:55:12;;;;;;;6.43;3.85;;;10.70;99.90;;;;;;5073396;28;20040;-85
2022/11/06 06:57:37;;;;;;;10.07;4.15;;;10.30;99.90;;;;;;5056631;28;20491;-87
2022/11/06 07:00:04;;;;;;;7.00;3.33;;;9.80;99.90;;;;;;5059219;28;20040;-87
2022/11/06 07:02:29;;;;;;;8.13;3.35;;;9.70;99.90;;;;;;5076240;28;20048;-85
2022/11/06 07:04:55;;;;;;;13.27;3.55;;;9.70;99.90;;;;;;5057262;28;20041;-87
2022/11/06 07:07:20;;;;;;;4.57;3.05;;;9.70;99.90;;;;;;5073616;28;20044;-87
2022/11/06 07:09:46;;;;;;;13.32;3.90;;;9.80;99.90;;;;;;5037255;28;20496;-87
2022/11/06 07:12:12;;;;;;;13.32;5.00;;;10.10;99.90;;;;;;5037271;28;20131;-87
2022/11/06 07:14:37;;;;;;;7.25;2.70;;;10.20;99.90;;;;;;5053514;28;20041;-87
2022/11/06 07:17:03;;;;;;;14.48;3.17;;;9.80;99.90;;;;;;5052969;28;20074;-86
2022/11/06 07:19:29;;;;;;;13.93;4.75;;;10.00;99.90;;;;;;5054015;28;20045;-86
2022/11/06 07:21:54;;;;;;;11.32;2.92;;;9.80;99.90;;;;;;5052577;28;20046;-87
2022/11/06 07:24:20;;;;;;;8.68;2.75;;;9.80;99.90;;;;;;5020062;28;20047;-87
2022/11/06 07:26:49;;;;;;;9.65;2.97;;;9.80;99.90;;;;;;5068279;28;20057;-87
2022/11/06 07:29:14;;;;;;;7.68;2.95;;;9.90;99.90;;;;;;5035875;28;20040;-88
2022/11/06 07:31:41;;;;;;;9.63;2.45;;;9.90;99.90;;;;;;5068934;28;20602;-85
2022/11/06 07:34:06;;;;;;;12.20;2.80;;;9.90;99.90;;;;;;5036141;28;20040;-87
2022/11/06 07:36:34;;;;;;;11.23;3.58;;;9.90;99.90;;;;;;5052782;28;20376;-87
2022/11/06 07:38:59;;;;;;;9.32;2.70;;;10.90;99.90;;;;;;5068688;28;20041;-87
2022/11/06 07:41:25;;;;;;;7.80;3.25;;;10.30;99.90;;;;;;5036327;28;20051;-88
2022/11/06 07:43:51;;;;;;;9.63;2.80;;;10.10;99.90;;;;;;5069690;28;20051;-88
2022/11/06 07:46:16;;;;;;;8.48;3.10;;;10.10;99.90;;;;;;5037454;28;20048;-86
2022/11/06 07:48:42;;;;;;;5.72;2.40;;;10.10;99.90;;;;;;5052896;28;20037;-86
2022/11/06 07:51:09;;;;;;;14.15;2.78;;;10.50;99.90;;;;;;5053040;28;20040;-90
2022/11/06 07:53:36;;;;;;;9.48;2.58;;;10.20;99.90;;;;;;5052726;28;20119;-88
2022/11/06 07:56:02;;;;;;;7.85;2.60;;;10.30;99.90;;;;;;5035625;28;20106;-87
2022/11/06 07:58:27;;;;;;;12.70;2.92;;;10.40;99.90;;;;;;5071607;28;20399;-88
2022/11/06 08:00:55;;;;;;;6.65;2.55;;;10.20;99.90;;;;;;5068513;28;20076;-88
2022/11/06 08:03:22;;;;;;;15.15;2.72;;;10.20;99.90;;;;;;5052585;28;20047;-92
2022/11/06 08:05:49;;;;;;;11.35;2.55;;;10.90;99.90;;;;;;5052171;28;20056;-88
2022/11/06 08:08:15;;;;;;;12.32;2.55;;;10.10;99.90;;;;;;5069070;28;20565;-92
2022/11/06 08:10:42;;;;;;;10.15;2.15;;;10.10;99.90;;;;;;5035935;28;20080;-89
2022/11/06 08:13:13;;;;;;;8.05;2.75;;;10.60;99.90;;;;;;5035682;28;20461;-90
2022/11/06 08:15:40;;;;;;;8.40;2.22;;;10.10;99.90;;;;;;5069361;28;20045;-90
2022/11/06 08:18:07;;;;;;;16.85;3.00;;;10.10;99.90;;;;;;5051778;28;20045;-86
2022/11/06 08:20:34;;;;;;;8.60;2.45;;;10.10;99.90;;;;;;5052166;28;20374;-88
2022/11/06 08:23:01;;;;;;;22.10;4.72;;;10.10;99.90;;;;;;5068778;28;20564;-91
2022/11/06 08:25:27;;;;;;;8.48;2.25;;;10.10;99.90;;;;;;5035901;28;20048;-89
2022/11/06 08:27:54;;;;;;;3.90;2.28;;;10.10;99.90;;;;;;5052251;28;20051;-88
2022/11/06 08:30:20;;;;;;;7.38;2.50;;;11.10;99.90;;;;;;5052076;28;20055;-89
2022/11/06 08:32:46;;;;;;;12.38;2.40;;;10.20;99.90;;;;;;5052692;28;20041;-93
2022/11/06 08:35:12;;;;;;;11.43;2.30;;;10.20;99.90;;;;;;5068316;28;20087;-90
2022/11/06 08:37:37;;;;;;;10.43;2.50;;;10.40;99.90;;;;;;5052056;28;20089;-90
2022/11/06 08:40:03;;;;;;;7.43;2.15;;;10.20;99.90;;;;;;5035470;28;20047;-87
2022/11/06 08:42:30;;;;;;;11.20;2.50;;;10.20;99.90;;;;;;5052203;28;20041;-90
2022/11/06 08:44:55;;;;;;;8.25;2.60;;;10.20;99.90;;;;;;5051956;28;20049;-90
2022/11/06 08:47:21;;;;;;;6.82;2.22;;;10.30;99.90;;;;;;5018537;28;20040;-89
2022/11/06 08:49:47;;;;;;;13.07;3.60;;;10.30;99.90;;;;;;5051970;28;20048;-90
2022/11/06 08:52:12;;;;;;;7.22;2.00;;;10.50;99.90;;;;;;5034731;28;20044;-93
2022/11/06 08:54:38;;;;;;;10.05;2.28;;;10.40;99.90;;;;;;5052217;28;20045;-90
2022/11/06 08:57:04;;;;;;;11.48;2.38;;;10.50;99.90;;;;;;5067991;28;20471;-91
2022/11/06 08:59:29;;;;;;;10.68;2.35;;;11.20;99.90;;;;;;5051455;28;20044;-90
2022/11/06 09:01:59;;;;;;;8.95;3.55;;;10.80;99.90;;;;;;5051324;28;20400;-91
2022/11/06 09:04:25;;;;;;;10.13;2.00;;;10.90;99.90;;;;;;5035824;28;20067;-92
2022/11/06 09:06:51;;;;;;;7.45;2.22;;;10.50;99.90;;;;;;5035899;28;20492;-94
2022/11/06 09:09:16;;;;;;;8.23;2.03;;;10.60;99.90;;;;;;5034154;28;20055;-92
2022/11/06 09:11:42;;;;;;;12.75;2.70;;;10.60;99.90;;;;;;5035561;28;20055;-89
2022/11/06 09:14:08;;;;;;;9.82;2.00;;;10.70;99.90;;;;;;5051288;28;20043;-90
2022/11/06 09:16:33;;;;;;;11.57;2.00;;;10.70;99.90;;;;;;5051273;28;20079;-88
2022/11/06 09:18:59;;;;;;;10.65;2.20;;;10.70;99.90;;;;;;5051620;28;20049;-89
2022/11/06 09:21:25;;;;;;;7.45;2.03;;;10.80;99.90;;;;;;5051360;28;20476;-90
2022/11/06 09:23:51;;;;;;;7.50;2.00;;;10.90;99.90;;;;;;5034456;28;20484;-91
2022/11/06 09:26:17;;;;;;;9.80;2.30;;;10.90;99.90;;;;;;5067311;28;20044;-89
2022/11/06 09:28:42;;;;;;;9.25;1.65;;;11.80;99.90;;;;;;5051578;28;20076;-88
2022/11/06 09:31:08;;;;;;;5.22;1.65;;;11.90;99.90;;;;;;5033982;28;20495;-88
2022/11/06 09:33:34;;;;;;;7.45;1.80;;;11.00;99.90;;;;;;5050814;28;20048;-89
2022/11/06 09:36:03;;;;;;;6.57;1.50;;;11.20;99.90;;;;;;5050763;28;20393;-89
2022/11/06 09:38:29;;;;;;;6.60;1.52;;;11.10;99.90;;;;;;5051283;28;20047;-88
2022/11/06 09:41:00;;;;;;;7.03;2.60;;;11.10;99.90;;;;;;5050771;28;20037;-89
2022/11/06 09:43:35;;;;;;;9.00;1.65;;;11.10;99.90;;;;;;5034382;28;20040;-89
2022/11/06 09:46:13;;;;;;;8.73;2.05;;;11.10;99.90;;;;;;5067789;28;20058;-90
2022/11/06 09:48:43;;;;;;;4.38;1.30;;;11.30;99.90;;;;;;5049524;28;20519;-89
2022/11/06 09:51:35;;;;;;;4.50;1.60;;;11.50;99.90;;;;;;5049222;28;20132;-89
2022/11/06 09:54:18;;;;;;;6.97;1.98;;;11.20;99.90;;;;;;5049411;28;20050;-91
2022/11/06 09:56:47;;;;;;;6.30;1.55;;;11.20;99.90;;;;;;5052601;28;20044;-90
2022/11/06 09:59:16;;;;;;;8.85;2.33;;;11.20;99.90;;;;;;5069454;28;20127;-88
2022/11/06 10:01:46;;;;;;;5.78;1.40;;;12.30;99.90;;;;;;5053345;28;20048;-89
2022/11/06 10:04:22;;;;;;;8.55;1.80;;;11.20;99.90;;;;;;5069608;28;20037;-89
2022/11/06 10:06:48;;;;;;;4.93;1.48;;;11.30;99.90;;;;;;5069986;28;20433;-90
2022/11/06 10:09:16;;;;;;;4.32;1.75;;;11.50;99.90;;;;;;5052906;28;20140;-88
2022/11/06 10:12:01;;;;;;;9.13;1.80;;;11.40;99.90;;;;;;5036588;28;20048;-88
2022/11/06 10:15:23;;;;;;;7.53;1.60;;;11.40;99.90;;;;;;5069902;28;20099;-88
2022/11/06 10:18:36;;;;;;;6.25;1.40;;;11.40;99.90;;;;;;5014373;28;20057;-88
2022/11/06 10:21:24;;;;;;;5.20;0.88;;;11.40;99.90;;;;;;5069242;28;20047;-90
2022/11/06 10:23:58;;;;;;;11.20;2.05;;;11.40;99.90;;;;;;5069604;28;20040;-91
2022/11/06 10:26:38;;;;;;;7.18;1.88;;;11.70;99.90;;;;;;5053237;28;20091;-85
2022/11/06 10:29:15;;;;;;;6.15;1.42;;;11.50;99.90;;;;;;5052697;28;20395;-90
2022/11/06 10:32:22;;;;;;;8.70;1.33;;;11.50;99.90;;;;;;5069336;28;20388;-92
2022/11/06 10:35:10;;;;;;;11.50;2.08;;;11.50;99.90;;;;;;5052747;28;20037;-88
2022/11/06 10:37:46;;;;;;;8.93;1.67;;;11.60;99.90;;;;;;5070234;28;20272;-89
2022/11/06 10:40:23;;;;;;;7.40;1.58;;;11.60;99.90;;;;;;5070475;28;20044;-88
2022/11/06 10:43:18;;;;;;;13.23;2.00;;;11.60;99.90;;;;;;5070018;28;20539;-90
2022/11/06 10:45:48;;;;;;;11.32;1.90;;;12.10;99.90;;;;;;5032358;28;20102;-89
2022/11/06 10:48:24;;;;;;;7.18;1.30;;;11.70;99.90;;;;;;5069496;28;20095;-90
2022/11/06 10:51:17;;;;;;;2.83;1.13;;;11.70;99.90;;;;;;5068992;28;20660;-90
2022/11/06 10:54:14;;;;;;;11.38;1.27;;;11.80;99.90;;;;;;5053603;28;20060;-90
2022/11/06 10:57:04;;;;;;;18.58;1.85;;;11.90;99.90;;;;;;5052433;28;20044;-88
2022/11/06 10:59:30;;;;;;;7.95;1.55;;;11.90;99.90;;;;;;5053024;28;20075;-88
2022/11/06 11:01:55;;;;;;;5.78;1.45;;;12.00;99.90;;;;;;5069526;28;20196;-88
2022/11/06 11:04:21;;;;;;;5.03;1.98;;;12.00;99.90;;;;;;5053283;28;20105;-88
2022/11/06 11:06:47;;;;;;;4.63;1.63;;;12.10;99.90;;;;;;5052526;28;20518;-89
2022/11/06 11:09:28;;;;;;;5.28;1.10;;;12.10;99.90;;;;;;5068684;28;20055;-89
2022/11/06 11:11:53;;;;;;;4.78;1.13;;;12.10;99.90;;;;;;5067824;28;20048;-94
2022/11/06 11:14:30;;;;;;;5.25;1.30;;;12.10;99.90;;;;;;5019942;28;20044;-94
2022/11/06 11:17:06;;;;;;;7.53;1.50;;;12.20;99.90;;;;;;5068718;28;20048;-88
2022/11/06 11:19:38;;;;;;;6.35;1.40;;;12.20;99.90;;;;;;5055207;28;20040;-93
2022/11/06 11:22:14;;;;;;;6.97;1.33;;;12.60;99.90;;;;;;5071636;28;20499;-96
2022/11/06 11:25:01;;;;;;;7.35;1.60;;;12.60;99.90;;;;;;5051029;28;20080;-91
2022/11/06 11:27:30;;;;;;;4.93;1.40;;;12.10;99.90;;;;;;5069876;28;20485;-90
2022/11/06 11:29:57;;;;;;;5.43;1.52;;;12.10;99.90;;;;;;5051279;28;20040;-90
2022/11/06 11:32:23;;;;;;;9.35;1.48;;;12.00;99.90;;;;;;5068482;28;20052;-88
2022/11/06 11:34:54;;;;;;;7.25;1.10;;;11.90;99.90;;;;;;5052207;28;20057;-90
2022/11/06 11:37:29;;;;;;;5.30;1.30;;;11.90;99.90;;;;;;5052850;28;20095;-92
2022/11/06 11:40:34;;;;;;;8.05;1.60;;;11.80;99.90;;;;;;5052685;28;20322;-92
2022/11/06 11:43:18;;;;;;;10.43;1.52;;;11.70;99.90;;;;;;5051317;28;20372;-92
2022/11/06 11:46:02;;;;;;;8.18;1.42;;;11.70;99.90;;;;;;5051757;28;20040;-89
2022/11/06 11:48:49;;;;;;;8.25;1.77;;;11.60;99.90;;;;;;5067693;28;20041;-92
2022/11/06 11:51:28;;;;;;;13.20;1.88;;;11.60;99.90;;;;;;5066820;28;20398;-94
2022/11/06 11:54:13;;;;;;;9.15;1.67;;;11.60;99.90;;;;;;5051365;28;20048;-91
2022/11/06 11:56:54;;;;;;;6.22;1.55;;;11.60;99.90;;;;;;5051166;28;20048;-88
2022/11/06 11:59:45;;;;;;;9.52;2.13;;;11.60;99.90;;;;;;5050709;28;20051;-88
2022/11/06 12:02:16;;;;;;;8.23;2.45;;;11.50;99.90;;;;;;5067673;28;20051;-89
2022/11/06 12:04:46;;;;;;;10.30;3.28;;;11.60;99.90;;;;;;5051347;28;20063;-94
2022/11/06 12:07:42;;;;;;;4.80;1.58;;;11.60;99.90;;;;;;5068452;28;20036;-87
2022/11/06 12:10:36;;;;;;;5.45;2.00;;;11.60;99.90;;;;;;5052916;28;20049;-90
2022/11/06 12:13:13;;;;;;;6.20;1.88;;;11.70;99.90;;;;;;5065441;28;20177;-93
2022/11/06 12:15:57;;;;;;;4.35;1.08;;;11.70;99.90;;;;;;5051544;28;20044;-92
2022/11/06 12:18:35;;;;;;;7.90;1.75;;;11.70;99.90;;;;;;5067976;28;20096;-91
2022/11/06 12:21:10;;;;;;;3.92;1.77;;;11.40;99.90;;;;;;5052605;28;20104;-93
2022/11/06 12:23:42;;;;;;;13.85;1.40;;;11.80;99.90;;;;;;5050788;28;20436;-95
2022/11/06 12:26:30;;;;;;;6.77;0.90;;;11.80;99.90;;;;;;5049922;28;20049;-89
2022/11/06 12:29:06;;;;;;;7.55;1.60;;;11.80;99.90;;;;;;5066486;28;20098;-91
2022/11/06 12:31:50;;;;;;;5.43;1.98;;;11.80;99.90;;;;;;5067875;28;20036;-92
2022/11/06 12:34:54;;;;;;;6.13;1.40;;;11.80;99.90;;;;;;5067196;28;20037;-95
2022/11/06 12:37:28;;;;;;;9.82;1.75;;;11.90;99.90;;;;;;5066622;28;20055;-96
2022/11/06 12:40:15;;;;;;;5.90;1.33;;;11.90;99.90;;;;;;5068430;28;20514;-91
2022/11/06 12:42:52;;;;;;;10.68;2.05;;;12.00;99.90;;;;;;5049975;28;20048;-92
2022/11/06 12:45:19;;;;;;;9.43;1.40;;;12.10;99.90;;;;;;5050811;28;20037;-95
2022/11/06 12:48:00;;;;;;;8.48;1.33;;;12.20;99.90;;;;;;5052141;28;20442;-93
2022/11/06 12:50:59;;;;;;;3.20;0.90;;;12.30;99.90;;;;;;5067992;28;20432;-90
2022/11/06 12:54:00;;;;;;;5.70;1.20;;;12.30;99.90;;;;;;5062637;28;20048;-89
2022/11/06 12:57:00;;;;;;;11.02;1.52;;;12.40;99.90;;;;;;5029220;28;20163;-90
2022/11/06 12:59:44;;;;;;;5.97;1.48;;;12.40;99.90;;;;;;5049196;28;20048;-90
2022/11/06 13:02:49;;;;;;;4.60;1.08;;;12.40;99.90;;;;;;5066209;28;20036;-93
2022/11/06 13:05:35;;;;;;;4.65;1.02;;;12.40;99.90;;;;;;5066407;28;20044;-89
2022/11/06 13:08:34;;;;;;;5.60;1.30;;;12.90;99.90;;;;;;5041719;28;20059;-90
2022/11/06 13:11:32;;;;;;;7.30;1.23;;;12.50;99.90;;;;;;5065669;28;20453;-90
2022/11/06 13:14:07;;;;;;;8.30;2.20;;;12.50;99.90;;;;;;5065771;28;20139;-92
2022/11/06 13:16:44;;;;;;;6.53;1.05;;;12.40;99.90;;;;;;5065358;28;20043;-88
2022/11/06 13:19:23;;;;;;;5.72;1.38;;;12.40;99.90;;;;;;5065603;28;20056;-88
2022/11/06 13:21:57;;;;;;;5.07;1.17;;;12.40;99.90;;;;;;5063450;28;20036;-86
2022/11/06 13:24:32;;;;;;;6.68;1.05;;;12.40;99.90;;;;;;5067301;28;20119;-89
2022/11/06 13:27:23;;;;;;;6.05;1.02;;;12.40;99.90;;;;;;5049299;28;20137;-88